sensor_id;sensor_type;location;lat;lon;timestamp;temperature;humidity
2783;DHT22;1399;47.072;15.452;2023-09-18T00:00:51;18.60;99.60
2783;DHT22;1399;47.072;15.452;2023-09-18T00:03:17;18.60;99.60
2783;DHT22;1399;47.072;15.452;2023-09-18T00:05:45;18.60;99.60
2783;DHT22;1399;47.072;15.452;2023-09-18T00:08:11;18.60;99.60
2783;DHT22;1399;47.072;15.452;2023-09-18T00:10:37;18.60;99.60
2783;DHT22;1399;47.072;15.452;2023-09-18T00:13:03;18.60;99.60
2783;DHT22;1399;47.072;15.452;2023-09-18T00:15:30;18.60;99.60
2783;DHT22;1399;47.072;15.452;2023-09-18T00:17:56;18.50;99.60
2783;DHT22;1399;47.072;15.452;2023-09-18T00:20:22;18.50;99.60
2783;DHT22;1399;47.072;15.452;2023-09-18T00:22:56;18.60;99.70
2783;DHT22;1399;47.072;15.452;2023-09-18T00:25:22;18.50;99.60
2783;DHT22;1399;47.072;15.452;2023-09-18T00:27:48;18.50;99.70
2783;DHT22;1399;47.072;15.452;2023-09-18T00:30:14;18.50;99.70
2783;DHT22;1399;47.072;15.452;2023-09-18T00:32:40;18.50;99.70
2783;DHT22;1399;47.072;15.452;2023-09-18T00:35:06;18.40;99.70
2783;DHT22;1399;47.072;15.452;2023-09-18T00:37:32;18.50;99.70
2783;DHT22;1399;47.072;15.452;2023-09-18T00:39:58;18.50;99.70
2783;DHT22;1399;47.072;15.452;2023-09-18T00:42:24;18.50;99.70
2783;DHT22;1399;47.072;15.452;2023-09-18T00:44:50;18.50;99.70
2783;DHT22;1399;47.072;15.452;2023-09-18T00:47:19;18.50;99.70
2783;DHT22;1399;47.072;15.452;2023-09-18T00:49:48;18.40;99.60
2783;DHT22;1399;47.072;15.452;2023-09-18T00:52:15;18.40;99.70
2783;DHT22;1399;47.072;15.452;2023-09-18T00:54:41;18.40;99.70
2783;DHT22;1399;47.072;15.452;2023-09-18T00:57:09;18.40;99.60
2783;DHT22;1399;47.072;15.452;2023-09-18T00:59:36;18.40;99.60
2783;DHT22;1399;47.072;15.452;2023-09-18T01:02:03;18.40;99.60
2783;DHT22;1399;47.072;15.452;2023-09-18T01:04:30;18.40;99.60
2783;DHT22;1399;47.072;15.452;2023-09-18T01:06:58;18.40;99.60
2783;DHT22;1399;47.072;15.452;2023-09-18T01:09:27;18.40;99.60
2783;DHT22;1399;47.072;15.452;2023-09-18T01:17:30;18.30;99.50
2783;DHT22;1399;47.072;15.452;2023-09-18T01:19:56;18.40;99.50
2783;DHT22;1399;47.072;15.452;2023-09-18T01:22:22;18.40;99.60
2783;DHT22;1399;47.072;15.452;2023-09-18T01:24:48;18.40;99.50
2783;DHT22;1399;47.072;15.452;2023-09-18T01:27:17;18.40;99.50
2783;DHT22;1399;47.072;15.452;2023-09-18T01:29:44;18.30;99.50
2783;DHT22;1399;47.072;15.452;2023-09-18T01:32:10;18.30;99.50
2783;DHT22;1399;47.072;15.452;2023-09-18T01:34:51;18.30;99.50
2783;DHT22;1399;47.072;15.452;2023-09-18T01:37:20;18.30;99.50
2783;DHT22;1399;47.072;15.452;2023-09-18T01:39:49;18.30;99.50
2783;DHT22;1399;47.072;15.452;2023-09-18T01:42:16;18.30;99.50
2783;DHT22;1399;47.072;15.452;2023-09-18T01:44:42;18.30;99.50
2783;DHT22;1399;47.072;15.452;2023-09-18T01:47:18;18.30;99.50
2783;DHT22;1399;47.072;15.452;2023-09-18T01:49:44;18.30;99.50
2783;DHT22;1399;47.072;15.452;2023-09-18T01:52:12;18.30;99.40
2783;DHT22;1399;47.072;15.452;2023-09-18T01:54:38;18.30;99.50
2783;DHT22;1399;47.072;15.452;2023-09-18T01:57:04;18.30;99.50
2783;DHT22;1399;47.072;15.452;2023-09-18T01:59:30;18.30;99.40
2783;DHT22;1399;47.072;15.452;2023-09-18T02:01:56;18.20;99.40
2783;DHT22;1399;47.072;15.452;2023-09-18T02:04:22;18.20;99.40
2783;DHT22;1399;47.072;15.452;2023-09-18T02:06:50;18.20;99.40
2783;DHT22;1399;47.072;15.452;2023-09-18T02:09:17;18.20;99.30
2783;DHT22;1399;47.072;15.452;2023-09-18T02:11:45;18.20;99.30
2783;DHT22;1399;47.072;15.452;2023-09-18T02:14:11;18.20;99.30
2783;DHT22;1399;47.072;15.452;2023-09-18T02:16:39;18.20;99.30
2783;DHT22;1399;47.072;15.452;2023-09-18T02:19:12;18.20;99.30
2783;DHT22;1399;47.072;15.452;2023-09-18T02:21:40;18.20;99.30
2783;DHT22;1399;47.072;15.452;2023-09-18T02:24:06;18.20;99.30
2783;DHT22;1399;47.072;15.452;2023-09-18T02:26:32;18.20;99.30
2783;DHT22;1399;47.072;15.452;2023-09-18T02:29:05;18.20;99.30
2783;DHT22;1399;47.072;15.452;2023-09-18T02:31:31;18.10;99.20
2783;DHT22;1399;47.072;15.452;2023-09-18T02:33:57;18.10;99.20
2783;DHT22;1399;47.072;15.452;2023-09-18T02:36:22;18.10;99.20
2783;DHT22;1399;47.072;15.452;2023-09-18T02:38:48;18.10;99.20
2783;DHT22;1399;47.072;15.452;2023-09-18T02:41:14;18.10;99.20
2783;DHT22;1399;47.072;15.452;2023-09-18T02:43:39;18.10;99.10
2783;DHT22;1399;47.072;15.452;2023-09-18T02:46:06;18.10;99.10
2783;DHT22;1399;47.072;15.452;2023-09-18T02:48:32;18.10;99.10
2783;DHT22;1399;47.072;15.452;2023-09-18T02:51:01;18.10;99.10
2783;DHT22;1399;47.072;15.452;2023-09-18T02:53:27;18.10;99.10
2783;DHT22;1399;47.072;15.452;2023-09-18T02:55:55;18.00;99.00
2783;DHT22;1399;47.072;15.452;2023-09-18T02:58:22;18.00;99.00
2783;DHT22;1399;47.072;15.452;2023-09-18T03:00:50;18.00;99.00
2783;DHT22;1399;47.072;15.452;2023-09-18T03:03:16;18.00;99.00
2783;DHT22;1399;47.072;15.452;2023-09-18T03:05:44;18.00;99.00
2783;DHT22;1399;47.072;15.452;2023-09-18T03:08:13;18.00;99.00
2783;DHT22;1399;47.072;15.452;2023-09-18T03:10:40;18.00;98.90
2783;DHT22;1399;47.072;15.452;2023-09-18T03:13:07;18.00;98.90
2783;DHT22;1399;47.072;15.452;2023-09-18T03:15:34;17.90;98.80
2783;DHT22;1399;47.072;15.452;2023-09-18T03:18:01;18.00;98.90
2783;DHT22;1399;47.072;15.452;2023-09-18T03:20:28;18.00;98.90
2783;DHT22;1399;47.072;15.452;2023-09-18T03:22:56;17.90;98.80
2783;DHT22;1399;47.072;15.452;2023-09-18T03:25:23;17.90;98.80
2783;DHT22;1399;47.072;15.452;2023-09-18T03:27:51;17.90;98.70
2783;DHT22;1399;47.072;15.452;2023-09-18T03:30:20;17.90;98.70
2783;DHT22;1399;47.072;15.452;2023-09-18T03:32:47;17.90;98.70
2783;DHT22;1399;47.072;15.452;2023-09-18T03:35:14;17.90;98.70
2783;DHT22;1399;47.072;15.452;2023-09-18T03:37:49;17.90;98.70
2783;DHT22;1399;47.072;15.452;2023-09-18T03:40:19;17.90;98.70
2783;DHT22;1399;47.072;15.452;2023-09-18T03:42:45;17.90;98.70
2783;DHT22;1399;47.072;15.452;2023-09-18T03:45:12;17.90;98.70
2783;DHT22;1399;47.072;15.452;2023-09-18T03:47:42;17.90;98.70
2783;DHT22;1399;47.072;15.452;2023-09-18T03:50:11;17.90;98.70
2783;DHT22;1399;47.072;15.452;2023-09-18T03:52:38;17.80;98.60
2783;DHT22;1399;47.072;15.452;2023-09-18T03:55:04;17.80;98.60
2783;DHT22;1399;47.072;15.452;2023-09-18T03:57:30;17.80;98.60
2783;DHT22;1399;47.072;15.452;2023-09-18T03:59:56;17.80;98.60
2783;DHT22;1399;47.072;15.452;2023-09-18T04:02:25;17.80;98.60
2783;DHT22;1399;47.072;15.452;2023-09-18T04:04:51;17.80;98.60
2783;DHT22;1399;47.072;15.452;2023-09-18T04:07:17;17.80;98.60
2783;DHT22;1399;47.072;15.452;2023-09-18T04:09:45;17.80;98.60
2783;DHT22;1399;47.072;15.452;2023-09-18T04:12:11;17.80;98.50
2783;DHT22;1399;47.072;15.452;2023-09-18T04:14:38;17.80;98.50
2783;DHT22;1399;47.072;15.452;2023-09-18T04:17:04;17.70;98.50
2783;DHT22;1399;47.072;15.452;2023-09-18T04:19:30;17.70;98.50
2783;DHT22;1399;47.072;15.452;2023-09-18T04:21:56;17.70;98.40
2783;DHT22;1399;47.072;15.452;2023-09-18T04:24:22;17.70;98.40
2783;DHT22;1399;47.072;15.452;2023-09-18T04:26:49;17.70;98.40
2783;DHT22;1399;47.072;15.452;2023-09-18T04:29:16;17.70;98.40
2783;DHT22;1399;47.072;15.452;2023-09-18T04:31:42;17.70;98.40
2783;DHT22;1399;47.072;15.452;2023-09-18T04:34:08;17.70;98.40
2783;DHT22;1399;47.072;15.452;2023-09-18T04:36:34;17.70;98.40
2783;DHT22;1399;47.072;15.452;2023-09-18T04:38:59;17.70;98.30
2783;DHT22;1399;47.072;15.452;2023-09-18T04:41:25;17.70;98.30
2783;DHT22;1399;47.072;15.452;2023-09-18T04:43:51;17.70;98.30
2783;DHT22;1399;47.072;15.452;2023-09-18T04:46:17;17.70;98.30
2783;DHT22;1399;47.072;15.452;2023-09-18T04:48:43;17.70;98.30
2783;DHT22;1399;47.072;15.452;2023-09-18T04:51:08;17.70;98.30
2783;DHT22;1399;47.072;15.452;2023-09-18T04:53:34;17.70;98.30
2783;DHT22;1399;47.072;15.452;2023-09-18T04:56:00;17.60;98.20
2783;DHT22;1399;47.072;15.452;2023-09-18T04:58:26;17.60;98.20
2783;DHT22;1399;47.072;15.452;2023-09-18T05:00:59;17.60;98.20
2783;DHT22;1399;47.072;15.452;2023-09-18T05:03:26;17.60;98.20
2783;DHT22;1399;47.072;15.452;2023-09-18T05:05:54;17.70;98.30
2783;DHT22;1399;47.072;15.452;2023-09-18T05:08:20;17.70;98.30
2783;DHT22;1399;47.072;15.452;2023-09-18T05:10:46;17.70;98.20
2783;DHT22;1399;47.072;15.452;2023-09-18T05:13:13;17.70;98.20
2783;DHT22;1399;47.072;15.452;2023-09-18T05:15:38;17.70;98.10
2783;DHT22;1399;47.072;15.452;2023-09-18T05:18:05;17.70;98.10
2783;DHT22;1399;47.072;15.452;2023-09-18T05:20:31;17.70;98.10
2783;DHT22;1399;47.072;15.452;2023-09-18T05:22:57;17.70;98.10
2783;DHT22;1399;47.072;15.452;2023-09-18T05:25:25;17.80;98.00
2783;DHT22;1399;47.072;15.452;2023-09-18T05:27:53;17.80;98.00
2783;DHT22;1399;47.072;15.452;2023-09-18T05:30:25;17.80;98.00
2783;DHT22;1399;47.072;15.452;2023-09-18T05:32:54;17.80;97.90
2783;DHT22;1399;47.072;15.452;2023-09-18T05:35:20;17.80;97.80
2783;DHT22;1399;47.072;15.452;2023-09-18T05:37:47;17.80;97.80
2783;DHT22;1399;47.072;15.452;2023-09-18T05:40:13;17.90;97.70
2783;DHT22;1399;47.072;15.452;2023-09-18T05:42:41;17.90;97.70
2783;DHT22;1399;47.072;15.452;2023-09-18T05:45:10;17.90;97.60
2783;DHT22;1399;47.072;15.452;2023-09-18T05:47:36;18.00;97.60
2783;DHT22;1399;47.072;15.452;2023-09-18T05:50:05;18.00;97.60
2783;DHT22;1399;47.072;15.452;2023-09-18T05:52:32;18.00;97.60
2783;DHT22;1399;47.072;15.452;2023-09-18T05:54:59;18.00;97.50
2783;DHT22;1399;47.072;15.452;2023-09-18T05:57:25;18.10;97.50
2783;DHT22;1399;47.072;15.452;2023-09-18T05:59:56;18.20;97.50
2783;DHT22;1399;47.072;15.452;2023-09-18T06:02:22;18.10;97.30
2783;DHT22;1399;47.072;15.452;2023-09-18T06:04:48;18.20;97.40
2783;DHT22;1399;47.072;15.452;2023-09-18T06:07:14;18.20;97.30
2783;DHT22;1399;47.072;15.452;2023-09-18T06:09:40;18.30;97.40
2783;DHT22;1399;47.072;15.452;2023-09-18T06:12:07;18.30;97.40
2783;DHT22;1399;47.072;15.452;2023-09-18T06:14:35;18.40;97.20
2783;DHT22;1399;47.072;15.452;2023-09-18T06:17:03;18.60;97.10
2783;DHT22;1399;47.072;15.452;2023-09-18T06:19:29;18.70;96.80
2783;DHT22;1399;47.072;15.452;2023-09-18T06:21:55;18.80;96.60
2783;DHT22;1399;47.072;15.452;2023-09-18T06:24:21;19.00;96.50
2783;DHT22;1399;47.072;15.452;2023-09-18T06:26:46;19.00;96.40
2783;DHT22;1399;47.072;15.452;2023-09-18T06:29:13;19.10;96.30
2783;DHT22;1399;47.072;15.452;2023-09-18T06:31:39;19.10;96.30
2783;DHT22;1399;47.072;15.452;2023-09-18T06:34:04;19.20;96.30
2783;DHT22;1399;47.072;15.452;2023-09-18T06:36:30;19.20;96.30
2783;DHT22;1399;47.072;15.452;2023-09-18T06:38:56;19.30;96.30
2783;DHT22;1399;47.072;15.452;2023-09-18T06:41:22;19.30;96.30
2783;DHT22;1399;47.072;15.452;2023-09-18T06:43:48;19.40;96.30
2783;DHT22;1399;47.072;15.452;2023-09-18T06:46:13;19.40;96.30
2783;DHT22;1399;47.072;15.452;2023-09-18T06:48:39;19.40;96.20
2783;DHT22;1399;47.072;15.452;2023-09-18T06:53:49;19.50;96.10
2783;DHT22;1399;47.072;15.452;2023-09-18T06:56:15;19.50;96.00
2783;DHT22;1399;47.072;15.452;2023-09-18T06:58:40;19.60;95.90
2783;DHT22;1399;47.072;15.452;2023-09-18T07:01:07;19.60;95.80
2783;DHT22;1399;47.072;15.452;2023-09-18T07:03:35;19.60;95.70
2783;DHT22;1399;47.072;15.452;2023-09-18T07:06:02;19.60;95.60
2783;DHT22;1399;47.072;15.452;2023-09-18T07:08:30;19.70;95.50
2783;DHT22;1399;47.072;15.452;2023-09-18T07:10:58;19.70;95.40
2783;DHT22;1399;47.072;15.452;2023-09-18T07:13:24;19.80;95.30
2783;DHT22;1399;47.072;15.452;2023-09-18T07:15:50;19.80;95.20
2783;DHT22;1399;47.072;15.452;2023-09-18T07:18:16;19.90;95.10
2783;DHT22;1399;47.072;15.452;2023-09-18T07:20:43;19.90;95.00
2783;DHT22;1399;47.072;15.452;2023-09-18T07:23:10;20.00;94.90
2783;DHT22;1399;47.072;15.452;2023-09-18T07:25:36;20.00;94.80
2783;DHT22;1399;47.072;15.452;2023-09-18T07:28:07;20.00;94.70
2783;DHT22;1399;47.072;15.452;2023-09-18T07:30:34;20.10;94.70
2783;DHT22;1399;47.072;15.452;2023-09-18T07:33:01;20.10;94.60
2783;DHT22;1399;47.072;15.452;2023-09-18T07:35:27;20.10;94.60
2783;DHT22;1399;47.072;15.452;2023-09-18T07:37:53;20.10;94.50
2783;DHT22;1399;47.072;15.452;2023-09-18T07:40:19;20.20;94.60
2783;DHT22;1399;47.072;15.452;2023-09-18T07:42:45;20.20;94.50
2783;DHT22;1399;47.072;15.452;2023-09-18T07:45:11;20.20;94.40
2783;DHT22;1399;47.072;15.452;2023-09-18T07:47:37;20.30;94.40
2783;DHT22;1399;47.072;15.452;2023-09-18T07:50:03;20.30;94.30
2783;DHT22;1399;47.072;15.452;2023-09-18T07:52:30;20.40;94.30
2783;DHT22;1399;47.072;15.452;2023-09-18T07:54:57;20.40;94.20
2783;DHT22;1399;47.072;15.452;2023-09-18T07:57:26;20.40;94.20
2783;DHT22;1399;47.072;15.452;2023-09-18T07:59:54;20.50;94.10
2783;DHT22;1399;47.072;15.452;2023-09-18T08:02:19;20.50;94.10
2783;DHT22;1399;47.072;15.452;2023-09-18T08:04:47;20.50;94.00
2783;DHT22;1399;47.072;15.452;2023-09-18T08:07:12;20.60;94.00
2783;DHT22;1399;47.072;15.452;2023-09-18T08:09:38;20.60;94.00
2783;DHT22;1399;47.072;15.452;2023-09-18T08:12:07;20.60;93.90
2783;DHT22;1399;47.072;15.452;2023-09-18T08:14:34;20.70;93.90
2783;DHT22;1399;47.072;15.452;2023-09-18T08:17:03;20.70;93.90
2783;DHT22;1399;47.072;15.452;2023-09-18T08:19:33;20.70;93.90
2783;DHT22;1399;47.072;15.452;2023-09-18T08:21:59;20.70;93.80
2783;DHT22;1399;47.072;15.452;2023-09-18T08:24:29;20.80;93.90
2783;DHT22;1399;47.072;15.452;2023-09-18T08:26:55;20.80;93.80
2783;DHT22;1399;47.072;15.452;2023-09-18T08:29:22;20.80;93.70
2783;DHT22;1399;47.072;15.452;2023-09-18T08:31:48;20.90;93.80
2783;DHT22;1399;47.072;15.452;2023-09-18T08:34:14;20.90;93.70
2783;DHT22;1399;47.072;15.452;2023-09-18T08:36:40;21.00;93.60
2783;DHT22;1399;47.072;15.452;2023-09-18T08:39:06;21.00;93.60
2783;DHT22;1399;47.072;15.452;2023-09-18T08:41:33;21.00;93.50
2783;DHT22;1399;47.072;15.452;2023-09-18T08:44:03;21.10;93.50
2783;DHT22;1399;47.072;15.452;2023-09-18T08:46:30;21.10;93.50
2783;DHT22;1399;47.072;15.452;2023-09-18T08:48:57;21.10;93.50
2783;DHT22;1399;47.072;15.452;2023-09-18T08:51:23;21.10;93.90
2783;DHT22;1399;47.072;15.452;2023-09-18T08:53:49;21.10;93.50
2783;DHT22;1399;47.072;15.452;2023-09-18T08:56:17;21.10;93.50
2783;DHT22;1399;47.072;15.452;2023-09-18T08:58:43;21.10;93.60
2783;DHT22;1399;47.072;15.452;2023-09-18T09:01:10;21.20;93.70
2783;DHT22;1399;47.072;15.452;2023-09-18T09:03:40;21.20;93.70
2783;DHT22;1399;47.072;15.452;2023-09-18T09:06:08;21.20;93.70
2783;DHT22;1399;47.072;15.452;2023-09-18T09:08:35;21.20;93.70
2783;DHT22;1399;47.072;15.452;2023-09-18T09:11:01;21.20;93.70
2783;DHT22;1399;47.072;15.452;2023-09-18T09:13:27;21.20;93.70
2783;DHT22;1399;47.072;15.452;2023-09-18T09:15:54;21.20;93.70
2783;DHT22;1399;47.072;15.452;2023-09-18T09:18:25;21.20;93.70
2783;DHT22;1399;47.072;15.452;2023-09-18T09:21:03;21.30;93.70
2783;DHT22;1399;47.072;15.452;2023-09-18T09:23:45;21.30;93.70
2783;DHT22;1399;47.072;15.452;2023-09-18T09:26:19;21.30;93.70
2783;DHT22;1399;47.072;15.452;2023-09-18T09:28:45;21.30;93.60
2783;DHT22;1399;47.072;15.452;2023-09-18T09:31:25;21.40;93.70
2783;DHT22;1399;47.072;15.452;2023-09-18T09:33:53;21.40;93.60
2783;DHT22;1399;47.072;15.452;2023-09-18T09:36:20;21.40;93.50
2783;DHT22;1399;47.072;15.452;2023-09-18T09:38:46;21.40;93.50
2783;DHT22;1399;47.072;15.452;2023-09-18T09:41:15;21.50;93.50
2783;DHT22;1399;47.072;15.452;2023-09-18T09:43:42;21.60;93.50
2783;DHT22;1399;47.072;15.452;2023-09-18T09:46:15;21.60;93.30
2783;DHT22;1399;47.072;15.452;2023-09-18T09:49:01;21.70;93.20
2783;DHT22;1399;47.072;15.452;2023-09-18T09:51:28;21.80;93.10
2783;DHT22;1399;47.072;15.452;2023-09-18T09:53:54;21.80;93.00
2783;DHT22;1399;47.072;15.452;2023-09-18T09:56:20;21.80;93.00
2783;DHT22;1399;47.072;15.452;2023-09-18T09:59:04;21.80;93.00
2783;DHT22;1399;47.072;15.452;2023-09-18T10:01:35;21.80;93.00
2783;DHT22;1399;47.072;15.452;2023-09-18T10:04:05;21.80;93.00
2783;DHT22;1399;47.072;15.452;2023-09-18T10:06:34;21.80;93.00
2783;DHT22;1399;47.072;15.452;2023-09-18T10:09:04;21.90;93.00
2783;DHT22;1399;47.072;15.452;2023-09-18T10:11:34;21.90;93.00
2783;DHT22;1399;47.072;15.452;2023-09-18T10:14:09;21.90;93.00
2783;DHT22;1399;47.072;15.452;2023-09-18T10:16:40;21.80;92.90
2783;DHT22;1399;47.072;15.452;2023-09-18T10:20:26;21.90;93.00
2783;DHT22;1399;47.072;15.452;2023-09-18T10:22:30;21.90;93.00
2783;DHT22;1399;47.072;15.452;2023-09-18T10:25:15;21.90;92.90
2783;DHT22;1399;47.072;15.452;2023-09-18T10:27:46;21.90;92.90
2783;DHT22;1399;47.072;15.452;2023-09-18T10:30:13;21.90;92.90
2783;DHT22;1399;47.072;15.452;2023-09-18T10:32:44;21.90;92.90
2783;DHT22;1399;47.072;15.452;2023-09-18T10:35:14;21.90;92.90
2783;DHT22;1399;47.072;15.452;2023-09-18T10:37:42;21.90;92.90
2783;DHT22;1399;47.072;15.452;2023-09-18T10:40:11;21.90;92.90
2783;DHT22;1399;47.072;15.452;2023-09-18T10:42:39;22.00;92.90
2783;DHT22;1399;47.072;15.452;2023-09-18T10:45:06;22.00;92.80
2783;DHT22;1399;47.072;15.452;2023-09-18T10:47:40;22.00;92.70
2783;DHT22;1399;47.072;15.452;2023-09-18T10:50:08;22.10;92.80
2783;DHT22;1399;47.072;15.452;2023-09-18T10:52:35;22.10;92.80
2783;DHT22;1399;47.072;15.452;2023-09-18T10:55:02;22.10;92.80
2783;DHT22;1399;47.072;15.452;2023-09-18T10:57:34;22.20;92.90
2783;DHT22;1399;47.072;15.452;2023-09-18T11:00:05;22.20;92.80
2783;DHT22;1399;47.072;15.452;2023-09-18T11:02:42;22.20;92.70
2783;DHT22;1399;47.072;15.452;2023-09-18T11:05:08;22.30;92.70
2783;DHT22;1399;47.072;15.452;2023-09-18T11:07:34;22.20;92.70
2783;DHT22;1399;47.072;15.452;2023-09-18T11:10:00;22.20;92.70
2783;DHT22;1399;47.072;15.452;2023-09-18T11:12:46;22.20;92.70
2783;DHT22;1399;47.072;15.452;2023-09-18T11:15:26;22.20;92.70
2783;DHT22;1399;47.072;15.452;2023-09-18T11:18:01;22.20;92.80
2783;DHT22;1399;47.072;15.452;2023-09-18T11:20:28;22.20;92.80
2783;DHT22;1399;47.072;15.452;2023-09-18T11:23:23;22.10;92.80
2783;DHT22;1399;47.072;15.452;2023-09-18T11:26:04;22.20;92.90
2783;DHT22;1399;47.072;15.452;2023-09-18T11:28:32;22.10;92.80
2783;DHT22;1399;47.072;15.452;2023-09-18T11:30:59;22.10;92.90
2783;DHT22;1399;47.072;15.452;2023-09-18T11:33:40;22.20;92.80
2783;DHT22;1399;47.072;15.452;2023-09-18T11:36:11;22.20;92.70
2783;DHT22;1399;47.072;15.452;2023-09-18T11:38:56;22.20;92.70
2783;DHT22;1399;47.072;15.452;2023-09-18T11:41:24;22.30;92.60
2783;DHT22;1399;47.072;15.452;2023-09-18T11:43:51;22.30;92.60
2783;DHT22;1399;47.072;15.452;2023-09-18T11:46:19;22.30;92.60
2783;DHT22;1399;47.072;15.452;2023-09-18T11:48:48;22.30;92.60
2783;DHT22;1399;47.072;15.452;2023-09-18T11:51:21;22.30;92.60
2783;DHT22;1399;47.072;15.452;2023-09-18T11:53:51;22.30;92.60
2783;DHT22;1399;47.072;15.452;2023-09-18T11:56:19;22.30;92.60
2783;DHT22;1399;47.072;15.452;2023-09-18T11:58:50;22.40;92.60
2783;DHT22;1399;47.072;15.452;2023-09-18T12:01:17;22.30;92.50
2783;DHT22;1399;47.072;15.452;2023-09-18T12:03:43;22.40;92.60
2783;DHT22;1399;47.072;15.452;2023-09-18T12:06:10;22.30;92.60
2783;DHT22;1399;47.072;15.452;2023-09-18T12:08:41;22.40;92.60
2783;DHT22;1399;47.072;15.452;2023-09-18T12:11:07;22.40;92.50
2783;DHT22;1399;47.072;15.452;2023-09-18T12:13:34;22.40;92.50
2783;DHT22;1399;47.072;15.452;2023-09-18T12:16:01;22.40;92.60
2783;DHT22;1399;47.072;15.452;2023-09-18T12:18:27;22.40;92.50
2783;DHT22;1399;47.072;15.452;2023-09-18T12:20:58;22.40;92.40
2783;DHT22;1399;47.072;15.452;2023-09-18T12:23:26;22.40;92.40
2783;DHT22;1399;47.072;15.452;2023-09-18T12:26:02;22.30;92.30
2783;DHT22;1399;47.072;15.452;2023-09-18T12:28:31;22.40;92.40
2783;DHT22;1399;47.072;15.452;2023-09-18T12:30:57;22.40;92.30
2783;DHT22;1399;47.072;15.452;2023-09-18T12:33:25;22.40;92.20
2783;DHT22;1399;47.072;15.452;2023-09-18T12:35:51;22.50;92.30
2783;DHT22;1399;47.072;15.452;2023-09-18T12:38:19;22.50;92.20
2783;DHT22;1399;47.072;15.452;2023-09-18T12:40:49;22.50;92.20
2783;DHT22;1399;47.072;15.452;2023-09-18T12:43:15;22.60;92.10
2783;DHT22;1399;47.072;15.452;2023-09-18T12:45:43;22.60;92.10
2783;DHT22;1399;47.072;15.452;2023-09-18T12:48:12;22.60;92.10
2783;DHT22;1399;47.072;15.452;2023-09-18T12:50:38;22.60;92.00
2783;DHT22;1399;47.072;15.452;2023-09-18T12:53:12;22.60;92.00
2783;DHT22;1399;47.072;15.452;2023-09-18T12:55:39;22.60;91.90
2783;DHT22;1399;47.072;15.452;2023-09-18T12:58:06;22.60;91.90
2783;DHT22;1399;47.072;15.452;2023-09-18T13:00:35;22.60;91.90
2783;DHT22;1399;47.072;15.452;2023-09-18T13:03:03;22.60;91.90
2783;DHT22;1399;47.072;15.452;2023-09-18T13:05:30;22.60;91.80
2783;DHT22;1399;47.072;15.452;2023-09-18T13:08:02;22.60;91.80
2783;DHT22;1399;47.072;15.452;2023-09-18T13:10:29;22.60;91.80
2783;DHT22;1399;47.072;15.452;2023-09-18T13:12:55;22.60;91.80
2783;DHT22;1399;47.072;15.452;2023-09-18T13:17:52;22.60;91.70
2783;DHT22;1399;47.072;15.452;2023-09-18T13:20:22;22.60;91.70
2783;DHT22;1399;47.072;15.452;2023-09-18T13:22:54;22.60;91.70
2783;DHT22;1399;47.072;15.452;2023-09-18T13:27:48;22.60;91.80
2783;DHT22;1399;47.072;15.452;2023-09-18T13:30:14;22.60;91.70
2783;DHT22;1399;47.072;15.452;2023-09-18T13:32:43;22.60;91.60
2783;DHT22;1399;47.072;15.452;2023-09-18T13:35:10;22.60;91.60
2783;DHT22;1399;47.072;15.452;2023-09-18T13:37:38;22.70;91.60
2783;DHT22;1399;47.072;15.452;2023-09-18T13:40:07;22.70;91.50
2783;DHT22;1399;47.072;15.452;2023-09-18T13:42:37;22.70;91.40
2783;DHT22;1399;47.072;15.452;2023-09-18T13:45:04;22.70;91.30
2783;DHT22;1399;47.072;15.452;2023-09-18T13:47:32;22.70;91.30
2783;DHT22;1399;47.072;15.452;2023-09-18T13:49:59;22.80;91.30
2783;DHT22;1399;47.072;15.452;2023-09-18T13:52:32;22.80;91.30
2783;DHT22;1399;47.072;15.452;2023-09-18T13:54:59;22.80;91.20
2783;DHT22;1399;47.072;15.452;2023-09-18T13:57:25;22.80;91.20
2783;DHT22;1399;47.072;15.452;2023-09-18T13:59:51;22.80;91.20
2783;DHT22;1399;47.072;15.452;2023-09-18T14:02:19;22.80;91.20
2783;DHT22;1399;47.072;15.452;2023-09-18T14:04:45;22.80;91.20
2783;DHT22;1399;47.072;15.452;2023-09-18T14:07:11;22.80;91.20
2783;DHT22;1399;47.072;15.452;2023-09-18T14:09:38;22.80;91.20
2783;DHT22;1399;47.072;15.452;2023-09-18T14:12:04;22.70;91.30
2783;DHT22;1399;47.072;15.452;2023-09-18T14:14:34;22.70;91.30
2783;DHT22;1399;47.072;15.452;2023-09-18T14:17:01;22.70;91.30
2783;DHT22;1399;47.072;15.452;2023-09-18T14:19:27;22.70;91.30
2783;DHT22;1399;47.072;15.452;2023-09-18T14:21:54;22.70;91.40
2783;DHT22;1399;47.072;15.452;2023-09-18T14:24:19;22.70;91.40
2783;DHT22;1399;47.072;15.452;2023-09-18T14:26:51;22.70;91.50
2783;DHT22;1399;47.072;15.452;2023-09-18T14:29:17;22.70;91.60
2783;DHT22;1399;47.072;15.452;2023-09-18T14:31:43;22.70;91.60
2783;DHT22;1399;47.072;15.452;2023-09-18T14:34:09;22.60;91.60
2783;DHT22;1399;47.072;15.452;2023-09-18T14:36:36;22.60;91.80
2783;DHT22;1399;47.072;15.452;2023-09-18T14:39:02;22.60;92.00
2783;DHT22;1399;47.072;15.452;2023-09-18T14:41:28;22.60;91.90
2783;DHT22;1399;47.072;15.452;2023-09-18T14:43:55;22.60;92.00
2783;DHT22;1399;47.072;15.452;2023-09-18T14:46:24;22.50;92.00
2783;DHT22;1399;47.072;15.452;2023-09-18T14:48:50;22.50;92.10
2783;DHT22;1399;47.072;15.452;2023-09-18T14:51:16;22.50;92.20
2783;DHT22;1399;47.072;15.452;2023-09-18T14:53:43;22.50;92.20
2783;DHT22;1399;47.072;15.452;2023-09-18T14:56:09;22.50;92.30
2783;DHT22;1399;47.072;15.452;2023-09-18T14:58:35;22.50;92.40
2783;DHT22;1399;47.072;15.452;2023-09-18T15:01:01;22.50;92.40
2783;DHT22;1399;47.072;15.452;2023-09-18T15:03:28;22.40;92.40
2783;DHT22;1399;47.072;15.452;2023-09-18T15:05:54;22.40;92.50
2783;DHT22;1399;47.072;15.452;2023-09-18T15:08:21;22.40;92.50
2783;DHT22;1399;47.072;15.452;2023-09-18T15:10:47;22.40;92.50
2783;DHT22;1399;47.072;15.452;2023-09-18T15:13:14;22.40;92.60
2783;DHT22;1399;47.072;15.452;2023-09-18T15:15:41;22.40;92.60
2783;DHT22;1399;47.072;15.452;2023-09-18T15:18:07;22.40;92.60
2783;DHT22;1399;47.072;15.452;2023-09-18T15:20:34;22.40;93.10
2783;DHT22;1399;47.072;15.452;2023-09-18T15:23:01;22.40;92.70
2783;DHT22;1399;47.072;15.452;2023-09-18T15:25:27;22.40;93.20
2783;DHT22;1399;47.072;15.452;2023-09-18T15:27:54;22.40;92.80
2783;DHT22;1399;47.072;15.452;2023-09-18T15:30:23;22.40;92.90
2783;DHT22;1399;47.072;15.452;2023-09-18T15:32:55;22.40;93.00
2783;DHT22;1399;47.072;15.452;2023-09-18T15:35:25;22.30;92.90
2783;DHT22;1399;47.072;15.452;2023-09-18T15:37:52;22.30;93.00
2783;DHT22;1399;47.072;15.452;2023-09-18T15:40:20;22.30;93.00
2783;DHT22;1399;47.072;15.452;2023-09-18T15:42:49;22.30;93.10
2783;DHT22;1399;47.072;15.452;2023-09-18T15:45:16;22.30;93.10
2783;DHT22;1399;47.072;15.452;2023-09-18T15:47:43;22.30;93.10
2783;DHT22;1399;47.072;15.452;2023-09-18T15:50:10;22.30;93.10
2783;DHT22;1399;47.072;15.452;2023-09-18T15:52:37;22.30;93.20
2783;DHT22;1399;47.072;15.452;2023-09-18T15:55:04;22.30;93.20
2783;DHT22;1399;47.072;15.452;2023-09-18T15:57:35;22.20;93.20
2783;DHT22;1399;47.072;15.452;2023-09-18T16:00:06;22.20;93.20
2783;DHT22;1399;47.072;15.452;2023-09-18T16:02:33;22.20;93.20